Time;durP1;ratioP1;P1;durP2;ratioP2;P2;SDS_P1;SDS_P2;PMS_P1;PMS_P2;Temp;Humidity;BMP_temperature;BMP_pressure;BME280_temperature;BME280_humidity;BME280_pressure;Samples;Min_cycle;Max_cycle;Signal;HPM_P1;HPM_P2
2023/01/30 00:01:17;;;;;;;80.93;46.03;;;77.70;2227.20;;;;;;5048171;28;20140;-63
2023/01/30 00:03:42;;;;;;;69.88;36.78;;;77.70;2227.20;;;;;;5052605;28;20033;-57
2023/01/30 00:06:08;;;;;;;81.90;51.55;;;77.60;2227.20;;;;;;5052108;28;20033;-64
2023/01/30 00:08:34;;;;;;;75.03;39.45;;;77.70;2227.20;;;;;;5052843;28;20040;-59
2023/01/30 00:11:08;;;;;;;83.10;48.45;;;77.70;2227.20;;;;;;5052934;28;20509;-58
2023/01/30 00:13:34;;;;;;;67.57;36.25;;;77.50;2227.20;;;;;;5052641;28;20466;-61
2023/01/30 00:16:00;;;;;;;77.15;40.60;;;77.50;2227.20;;;;;;5052940;28;20091;-64
2023/01/30 00:18:26;;;;;;;79.22;44.38;;;77.50;2227.20;;;;;;5052943;28;20864;-58
2023/01/30 00:20:59;;;;;;;72.22;43.15;;;77.40;2227.20;;;;;;5052735;28;20383;-58
2023/01/30 00:23:26;;;;;;;68.13;39.33;;;77.50;2227.20;;;;;;5052486;28;20037;-63
2023/01/30 00:25:52;;;;;;;114.15;60.75;;;77.40;2227.20;;;;;;5052303;28;20057;-63
2023/01/30 00:28:18;;;;;;;72.05;39.63;;;77.40;2227.20;;;;;;5052717;28;20344;-63
2023/01/30 00:30:44;;;;;;;73.13;38.88;;;77.30;2227.20;;;;;;5052453;28;20116;-64
2023/01/30 00:33:10;;;;;;;69.53;37.53;;;77.50;2227.20;;;;;;5052525;28;20104;-57
2023/01/30 00:35:35;;;;;;;68.22;37.72;;;77.50;2227.20;;;;;;5052639;28;20108;-61
2023/01/30 00:38:01;;;;;;;72.85;39.40;;;77.60;2227.20;;;;;;5052380;28;20079;-57
2023/01/30 00:40:28;;;;;;;69.95;37.10;;;77.50;2227.20;;;;;;5052376;28;20107;-58
2023/01/30 00:48:26;;;;;;;74.10;39.67;;;77.40;2227.20;;;;;;5052202;28;20056;-63
2023/01/30 00:50:52;;;;;;;69.88;37.25;;;77.40;2227.20;;;;;;5052229;28;20041;-58
2023/01/30 00:53:18;;;;;;;222.77;132.50;;;77.50;2227.20;;;;;;5052139;28;20506;-64
2023/01/30 00:55:44;;;;;;;82.15;44.60;;;77.50;2227.20;;;;;;5052011;28;20060;-58
2023/01/30 00:58:11;;;;;;;73.38;41.00;;;77.50;2227.20;;;;;;5050847;28;20041;-58
2023/01/30 01:00:37;;;;;;;64.38;35.67;;;77.50;2227.20;;;;;;5052191;28;20421;-58
2023/01/30 01:03:03;;;;;;;108.97;60.45;;;77.40;2227.20;;;;;;5051871;28;20390;-63
2023/01/30 01:05:29;;;;;;;91.18;48.20;;;77.50;2227.20;;;;;;5052003;28;20036;-63
2023/01/30 01:07:55;;;;;;;72.18;41.13;;;77.60;2227.20;;;;;;5051428;28;20040;-58
2023/01/30 01:10:21;;;;;;;58.33;33.70;;;77.70;2227.20;;;;;;5051814;28;20033;-60
2023/01/30 01:12:51;;;;;;;61.33;34.78;;;77.70;2227.20;;;;;;5051950;28;21014;-58
2023/01/30 01:15:18;;;;;;;82.30;41.78;;;77.50;2227.20;;;;;;5051822;28;20025;-58
2023/01/30 01:17:44;;;;;;;62.90;34.42;;;77.50;2227.20;;;;;;5051441;28;20048;-58
2023/01/30 01:20:10;;;;;;;66.57;34.95;;;77.50;2227.20;;;;;;5051619;28;20025;-58
2023/01/30 01:22:36;;;;;;;112.45;58.42;;;77.50;2227.20;;;;;;5051384;28;20047;-57
2023/01/30 01:25:02;;;;;;;113.60;57.70;;;77.40;2227.20;;;;;;5051328;28;20033;-62
2023/01/30 01:27:28;;;;;;;84.72;43.45;;;77.60;2227.20;;;;;;5051777;28;20021;-58
2023/01/30 01:29:54;;;;;;;55.47;32.97;;;77.60;2227.20;;;;;;5051320;28;20159;-58
2023/01/30 01:32:20;;;;;;;48.40;27.92;;;77.70;2227.20;;;;;;5051311;28;20485;-58
2023/01/30 01:34:46;;;;;;;52.97;29.75;;;102.40;2227.20;;;;;;5051409;28;20151;-58
2023/01/30 01:37:12;;;;;;;78.43;41.25;;;102.40;2227.20;;;;;;5051038;28;20128;-63
2023/01/30 01:42:25;;;;;;;54.90;30.67;;;77.60;2227.20;;;;;;5051341;28;20417;-58
2023/01/30 01:45:19;;;;;;;232.30;121.88;;;77.70;2227.20;;;;;;5050963;28;20021;-64
2023/01/30 01:47:54;;;;;;;59.05;34.60;;;77.60;2227.20;;;;;;5049045;28;20045;-64
2023/01/30 01:50:25;;;;;;;52.47;28.70;;;77.70;2227.20;;;;;;5051273;28;20032;-57
2023/01/30 01:52:55;;;;;;;56.35;30.40;;;77.70;2227.20;;;;;;5050902;28;20044;-63
2023/01/30 01:55:23;;;;;;;54.22;29.92;;;77.60;2227.20;;;;;;5033217;28;20925;-66
2023/01/30 01:58:09;;;;;;;53.97;28.23;;;77.70;2227.20;;;;;;5050877;28;20033;-57
2023/01/30 02:00:35;;;;;;;45.38;27.25;;;77.70;2227.20;;;;;;5050094;28;20391;-58
2023/01/30 02:03:13;;;;;;;52.05;29.05;;;77.70;2227.20;;;;;;5050862;28;20033;-59
2023/01/30 02:05:44;;;;;;;50.72;28.80;;;77.70;2227.20;;;;;;5050911;28;20391;-61
2023/01/30 02:08:17;;;;;;;56.63;30.55;;;102.40;2227.20;;;;;;5050839;28;20079;-57
2023/01/30 02:11:11;;;;;;;73.15;39.15;;;77.70;2227.20;;;;;;5050218;28;20060;-58
2023/01/30 02:13:37;;;;;;;270.95;130.82;;;77.70;2227.20;;;;;;5050663;28;20025;-57
2023/01/30 02:16:05;;;;;;;53.92;33.03;;;77.70;2227.20;;;;;;5050606;28;20024;-59
2023/01/30 02:18:34;;;;;;;447.92;240.88;;;77.60;2227.20;;;;;;5050397;28;20044;-58
2023/01/30 02:21:26;;;;;;;92.38;46.60;;;77.50;2227.20;;;;;;5050605;28;20044;-57
2023/01/30 02:24:24;;;;;;;87.38;44.50;;;77.30;2227.20;;;;;;5050501;28;20036;-58
2023/01/30 02:27:01;;;;;;;381.48;219.75;;;77.40;2227.20;;;;;;5050491;28;20029;-64
2023/01/30 02:29:47;;;;;;;44.30;25.52;;;77.30;2227.20;;;;;;5050437;28;20028;-58
2023/01/30 02:32:21;;;;;;;37.53;20.30;;;77.20;2227.20;;;;;;5050320;28;20029;-58
2023/01/30 02:35:16;;;;;;;29.08;18.10;;;77.30;2227.20;;;;;;5050491;28;20025;-58
2023/01/30 02:38:07;;;;;;;303.13;169.88;;;77.40;2227.20;;;;;;5050084;28;20037;-59
2023/01/30 02:40:43;;;;;;;185.55;100.63;;;77.40;2227.20;;;;;;4988703;28;20038;-58
2023/01/30 02:43:30;;;;;;;98.10;54.58;;;77.20;2227.20;;;;;;4988998;28;20044;-59
2023/01/30 02:45:59;;;;;;;184.38;99.75;;;77.30;2227.20;;;;;;4989108;28;20038;-58
2023/01/30 02:48:45;;;;;;;358.70;192.45;;;77.30;2227.20;;;;;;5027269;28;20088;-62
2023/01/30 02:51:18;;;;;;;254.13;133.77;;;77.40;2227.20;;;;;;5028096;28;20099;-58
2023/01/30 02:53:46;;;;;;;100.53;57.45;;;77.30;2227.20;;;;;;5028053;28;20057;-63
2023/01/30 02:56:11;;;;;;;69.82;48.75;;;77.40;2227.20;;;;;;5027978;28;20040;-58
2023/01/30 02:58:45;;;;;;;37.60;24.95;;;77.40;2227.20;;;;;;5028209;28;20490;-58
2023/01/30 03:01:28;;;;;;;30.15;17.30;;;77.30;2227.20;;;;;;5027959;28;20022;-58
2023/01/30 03:04:31;;;;;;;22.98;14.05;;;77.20;2227.20;;;;;;5028139;28;20495;-63
2023/01/30 03:07:24;;;;;;;27.60;14.88;;;77.10;2227.20;;;;;;5028124;28;20025;-61
2023/01/30 03:10:06;;;;;;;32.50;19.77;;;77.10;2227.20;;;;;;5028007;28;20108;-63
2023/01/30 03:12:39;;;;;;;29.60;17.27;;;77.20;2227.20;;;;;;5027949;28;20259;-58
2023/01/30 03:15:22;;;;;;;46.80;27.02;;;77.30;2227.20;;;;;;5027785;28;20108;-58
2023/01/30 03:17:48;;;;;;;23.27;15.70;;;77.20;2227.20;;;;;;5056767;28;20074;-58
2023/01/30 03:20:17;;;;;;;20.42;14.13;;;77.20;2227.20;;;;;;5069901;28;20028;-59
2023/01/30 03:22:43;;;;;;;25.48;15.77;;;77.30;2227.20;;;;;;5072358;28;20359;-58
2023/01/30 03:25:12;;;;;;;25.85;14.15;;;77.40;2227.20;;;;;;5074055;28;20123;-58
2023/01/30 03:27:39;;;;;;;26.80;14.57;;;77.40;2227.20;;;;;;5074062;28;20021;-58
2023/01/30 03:30:05;;;;;;;27.30;14.82;;;77.40;2227.20;;;;;;5073527;28;20028;-58
2023/01/30 03:32:31;;;;;;;27.15;15.55;;;77.40;2227.20;;;;;;5073571;28;20539;-58
2023/01/30 03:34:56;;;;;;;21.95;13.13;;;77.40;2227.20;;;;;;5073655;28;20103;-58
2023/01/30 03:37:22;;;;;;;28.73;15.25;;;77.40;2227.20;;;;;;5073376;28;20471;-58
2023/01/30 03:39:48;;;;;;;29.90;16.92;;;77.40;2227.20;;;;;;5073681;28;20131;-60
2023/01/30 03:42:14;;;;;;;24.15;16.25;;;77.50;2227.20;;;;;;5073400;28;20035;-58
2023/01/30 03:44:39;;;;;;;26.77;16.48;;;77.40;2227.20;;;;;;5073863;28;20122;-58
2023/01/30 03:47:05;;;;;;;29.38;16.88;;;77.40;2227.20;;;;;;5064644;28;20091;-58
2023/01/30 03:49:31;;;;;;;26.65;15.88;;;77.40;2227.20;;;;;;5053143;28;20032;-58
2023/01/30 03:51:58;;;;;;;27.60;16.73;;;77.30;2227.20;;;;;;5053407;28;20060;-65
2023/01/30 03:54:24;;;;;;;24.55;16.25;;;77.40;2227.20;;;;;;5053211;28;20056;-58
2023/01/30 03:56:49;;;;;;;24.15;14.55;;;77.30;2227.20;;;;;;5053087;28;20083;-58
2023/01/30 03:59:15;;;;;;;30.95;16.73;;;77.30;2227.20;;;;;;5053181;28;20075;-59
2023/01/30 04:01:41;;;;;;;29.15;16.85;;;77.20;2227.20;;;;;;5053008;28;20436;-58
2023/01/30 04:04:06;;;;;;;27.83;16.38;;;77.00;2227.20;;;;;;5053119;28;20018;-62
2023/01/30 04:06:32;;;;;;;31.00;17.73;;;77.00;2227.20;;;;;;5053028;28;20017;-58
2023/01/30 04:08:58;;;;;;;28.38;15.82;;;77.10;2227.20;;;;;;5052988;28;20037;-58
2023/01/30 04:11:23;;;;;;;30.70;16.67;;;77.10;2227.20;;;;;;5052918;28;20025;-58
2023/01/30 04:13:49;;;;;;;31.08;17.60;;;77.20;2227.20;;;;;;5052905;28;20029;-58
2023/01/30 04:16:20;;;;;;;30.38;16.30;;;77.30;2227.20;;;;;;5052577;28;20036;-62
2023/01/30 04:18:46;;;;;;;29.58;17.73;;;77.30;2227.20;;;;;;5052854;28;20142;-57
2023/01/30 04:21:13;;;;;;;26.50;15.15;;;77.20;2227.20;;;;;;5052438;28;20522;-58
2023/01/30 04:23:39;;;;;;;30.42;16.23;;;77.10;2227.20;;;;;;5052980;28;20033;-57
2023/01/30 04:26:05;;;;;;;28.48;16.35;;;77.10;2227.20;;;;;;5052303;28;20059;-58
2023/01/30 04:28:31;;;;;;;28.52;16.95;;;77.10;2227.20;;;;;;5052499;28;20382;-59
2023/01/30 04:30:57;;;;;;;34.28;17.58;;;77.20;2227.20;;;;;;5052526;28;20028;-58
2023/01/30 04:33:23;;;;;;;28.58;15.95;;;77.30;2227.20;;;;;;5052290;28;20028;-58
2023/01/30 04:35:52;;;;;;;29.88;16.58;;;77.20;2227.20;;;;;;5052495;28;20025;-58
2023/01/30 04:38:18;;;;;;;29.40;18.73;;;77.40;2227.20;;;;;;5052530;28;20490;-64
2023/01/30 04:40:50;;;;;;;31.15;17.85;;;77.40;2227.20;;;;;;5052291;28;20032;-58
2023/01/30 04:43:16;;;;;;;27.75;17.20;;;77.30;2227.20;;;;;;5052466;28;20035;-58
2023/01/30 04:45:43;;;;;;;30.40;18.13;;;77.20;2227.20;;;;;;5052120;28;20025;-58
2023/01/30 04:48:09;;;;;;;33.53;18.95;;;77.30;2227.20;;;;;;5052259;28;20048;-58
2023/01/30 04:50:35;;;;;;;32.28;21.42;;;77.30;2227.20;;;;;;5052045;28;20036;-58
2023/01/30 04:53:01;;;;;;;30.92;18.83;;;77.20;2227.20;;;;;;5051955;28;20052;-58
2023/01/30 04:55:27;;;;;;;29.73;17.98;;;77.10;2227.20;;;;;;5052427;28;20029;-57
2023/01/30 04:57:52;;;;;;;29.27;18.42;;;77.00;2227.20;;;;;;5052105;28;20078;-58
2023/01/30 05:00:18;;;;;;;34.13;17.08;;;77.10;2227.20;;;;;;5052018;28;20018;-58
2023/01/30 05:02:44;;;;;;;28.80;16.85;;;77.10;2227.20;;;;;;5051899;28;20076;-58
2023/01/30 05:05:09;;;;;;;30.23;17.60;;;76.90;2227.20;;;;;;5052048;28;20100;-58
2023/01/30 05:07:35;;;;;;;29.63;17.65;;;76.90;2227.20;;;;;;5051840;28;20471;-58
2023/01/30 05:10:01;;;;;;;32.90;18.27;;;76.90;2227.20;;;;;;5051668;28;20108;-58
2023/01/30 05:12:27;;;;;;;30.35;19.38;;;76.90;2227.20;;;;;;5052052;28;20203;-58
2023/01/30 05:14:53;;;;;;;36.72;18.33;;;77.10;2227.20;;;;;;5051697;28;20039;-58
2023/01/30 05:17:19;;;;;;;34.15;17.52;;;76.90;2227.20;;;;;;5051624;28;20052;-58
2023/01/30 05:19:44;;;;;;;31.65;17.95;;;77.10;2227.20;;;;;;5051409;28;20036;-58
2023/01/30 05:22:11;;;;;;;28.75;17.63;;;77.00;2227.20;;;;;;5051570;28;20025;-58
2023/01/30 05:24:36;;;;;;;34.03;19.20;;;77.10;2227.20;;;;;;5051721;28;20020;-58
2023/01/30 05:27:03;;;;;;;33.83;20.65;;;77.10;2227.20;;;;;;5051568;28;20055;-58
2023/01/30 05:29:28;;;;;;;32.97;19.15;;;77.20;2227.20;;;;;;5051478;28;20035;-58
2023/01/30 05:31:54;;;;;;;32.63;19.35;;;77.00;2227.20;;;;;;5051436;28;20500;-58
2023/01/30 05:34:20;;;;;;;35.90;17.73;;;52.10;2227.20;;;;;;5051446;28;20029;-58
2023/01/30 05:36:46;;;;;;;31.95;20.13;;;76.90;2227.20;;;;;;5051585;28;20033;-58
2023/01/30 05:39:12;;;;;;;33.45;20.08;;;76.90;2227.20;;;;;;5051369;28;20033;-58
2023/01/30 05:41:38;;;;;;;31.70;18.80;;;76.90;2227.20;;;;;;5051314;28;20479;-60
2023/01/30 05:44:04;;;;;;;31.42;19.20;;;76.80;2227.20;;;;;;5050548;28;20017;-58
2023/01/30 05:46:29;;;;;;;38.60;19.30;;;77.00;2227.20;;;;;;5051012;28;20040;-57
2023/01/30 05:48:55;;;;;;;33.15;17.55;;;76.90;2227.20;;;;;;5051302;28;20375;-58
2023/01/30 05:51:23;;;;;;;36.13;21.33;;;76.90;2227.20;;;;;;5050757;28;20025;-58
2023/01/30 05:53:49;;;;;;;30.63;18.08;;;76.90;2227.20;;;;;;5051214;28;20029;-58
2023/01/30 05:56:16;;;;;;;32.10;20.70;;;77.00;2227.20;;;;;;5050787;28;20398;-58
2023/01/30 05:58:42;;;;;;;35.13;18.73;;;77.00;2227.20;;;;;;5039372;28;20029;-58
2023/01/30 06:01:11;;;;;;;28.58;17.80;;;76.80;2227.20;;;;;;5030999;28;20415;-58
2023/01/30 06:03:37;;;;;;;39.20;29.40;;;76.90;2227.20;;;;;;5031016;28;20021;-58
2023/01/30 06:06:04;;;;;;;32.67;17.63;;;76.90;2227.20;;;;;;5030811;28;20025;-59
2023/01/30 06:08:30;;;;;;;36.50;21.98;;;76.90;2227.20;;;;;;5030856;28;20478;-58
2023/01/30 06:11:01;;;;;;;29.52;18.83;;;77.00;2227.20;;;;;;5031060;28;20029;-57
2023/01/30 06:13:27;;;;;;;32.92;18.55;;;77.00;2227.20;;;;;;5030987;28;20033;-57
2023/01/30 06:15:52;;;;;;;30.73;16.60;;;77.10;2227.20;;;;;;5030677;28;20387;-57
2023/01/30 06:18:18;;;;;;;31.48;19.23;;;77.10;2227.20;;;;;;5030786;28;20391;-58
2023/01/30 06:20:48;;;;;;;31.02;17.67;;;77.10;2227.20;;;;;;5030461;28;20030;-58
2023/01/30 06:23:14;;;;;;;40.42;26.05;;;77.10;2227.20;;;;;;5030421;28;20037;-57
2023/01/30 06:25:45;;;;;;;43.92;24.23;;;77.20;2227.20;;;;;;5030766;28;20029;-62
2023/01/30 06:28:12;;;;;;;53.30;38.10;;;77.30;2227.20;;;;;;5030483;28;20026;-58
2023/01/30 06:30:38;;;;;;;44.03;25.95;;;77.30;2227.20;;;;;;5030688;28;20030;-58
2023/01/30 06:33:03;;;;;;;35.92;21.50;;;77.20;2227.20;;;;;;5030452;28;20044;-57
2023/01/30 06:35:29;;;;;;;28.50;16.30;;;77.20;2227.20;;;;;;5030585;28;20029;-57
2023/01/30 06:37:55;;;;;;;26.45;16.75;;;77.10;2227.20;;;;;;5030519;28;20164;-57
2023/01/30 06:40:21;;;;;;;33.72;20.45;;;76.90;2227.20;;;;;;5030505;28;20386;-57
2023/01/30 06:42:47;;;;;;;35.17;16.90;;;77.10;2227.20;;;;;;5037998;28;20033;-57
2023/01/30 06:45:15;;;;;;;44.83;21.52;;;77.10;2227.20;;;;;;5050111;28;20032;-57
2023/01/30 06:48:07;;;;;;;40.50;21.95;;;77.20;2227.20;;;;;;5049516;28;20598;-59
2023/01/30 06:50:33;;;;;;;37.25;20.67;;;77.20;2227.20;;;;;;5047437;28;20041;-58
2023/01/30 06:53:02;;;;;;;35.00;18.02;;;77.20;2227.20;;;;;;5050090;28;20403;-56
2023/01/30 06:55:28;;;;;;;34.95;22.23;;;77.20;2227.20;;;;;;5050509;28;20143;-59
2023/01/30 06:58:20;;;;;;;37.25;23.48;;;77.20;2227.20;;;;;;5053977;28;20033;-56
2023/01/30 07:00:46;;;;;;;38.30;22.90;;;77.20;2227.20;;;;;;5051175;28;20033;-61
2023/01/30 07:03:16;;;;;;;31.77;19.83;;;77.10;2227.20;;;;;;5053600;28;20104;-56
2023/01/30 07:05:43;;;;;;;35.13;21.95;;;77.00;2227.20;;;;;;5054040;28;20025;-57
2023/01/30 07:08:09;;;;;;;38.72;22.77;;;77.10;2227.20;;;;;;5054311;28;20029;-57
2023/01/30 07:10:35;;;;;;;42.70;21.98;;;77.10;2227.20;;;;;;5053691;28;20028;-55
2023/01/30 07:13:02;;;;;;;37.47;23.65;;;77.30;2227.20;;;;;;5053658;28;20072;-60
2023/01/30 07:15:28;;;;;;;89.00;54.42;;;77.30;2227.20;;;;;;5053787;28;20025;-62
2023/01/30 07:17:53;;;;;;;113.80;67.70;;;77.40;2227.20;;;;;;5053695;28;20174;-61
2023/01/30 07:20:19;;;;;;;44.47;26.10;;;77.50;2227.20;;;;;;5035553;28;20116;-60
2023/01/30 07:22:53;;;;;;;81.80;49.28;;;77.60;2227.20;;;;;;5053651;28;20066;-61
2023/01/30 07:25:20;;;;;;;55.42;35.10;;;77.70;2227.20;;;;;;5036431;28;20082;-62
2023/01/30 07:27:50;;;;;;;96.50;61.60;;;77.70;2227.20;;;;;;5053109;28;20115;-61
2023/01/30 07:30:16;;;;;;;61.13;40.55;;;77.70;2227.20;;;;;;5053517;28;20024;-62
2023/01/30 07:32:42;;;;;;;60.30;37.10;;;102.40;2227.20;;;;;;5053708;28;20382;-60
2023/01/30 07:35:08;;;;;;;67.97;49.80;;;77.70;2227.20;;;;;;5053608;28;20021;-60
2023/01/30 07:37:33;;;;;;;46.22;31.52;;;77.70;2227.20;;;;;;5053511;28;20037;-61
2023/01/30 07:39:59;;;;;;;50.55;28.70;;;77.70;2227.20;;;;;;5053705;28;20043;-60
2023/01/30 07:42:25;;;;;;;43.15;25.80;;;102.40;2227.20;;;;;;5053393;28;20043;-60
2023/01/30 07:44:50;;;;;;;31.27;18.88;;;102.40;2227.20;;;;;;5053352;28;20028;-60
2023/01/30 07:47:18;;;;;;;27.45;17.23;;;102.50;2227.20;;;;;;5053429;28;20063;-60
2023/01/30 07:49:44;;;;;;;24.63;14.50;;;102.60;2227.20;;;;;;5053230;28;20025;-61
2023/01/30 07:52:10;;;;;;;21.73;13.93;;;102.60;2227.20;;;;;;5053242;28;20443;-62
2023/01/30 07:54:36;;;;;;;22.40;13.68;;;102.40;2227.20;;;;;;5053172;28;20064;-63
2023/01/30 07:57:01;;;;;;;27.58;15.02;;;102.50;2227.20;;;;;;5053156;28;20124;-60
2023/01/30 07:59:27;;;;;;;25.10;16.35;;;102.50;2227.20;;;;;;5053092;28;20029;-60
2023/01/30 08:01:53;;;;;;;33.10;24.33;;;102.50;2227.20;;;;;;5053104;28;20032;-60
2023/01/30 08:04:18;;;;;;;25.20;16.50;;;102.60;2227.20;;;;;;5053101;28;20028;-61
2023/01/30 08:06:44;;;;;;;27.15;18.10;;;102.70;2227.20;;;;;;5052869;28;20037;-62
2023/01/30 08:09:10;;;;;;;30.02;19.48;;;102.80;2227.20;;;;;;5052517;28;20036;-63
2023/01/30 08:11:36;;;;;;;27.70;17.85;;;102.70;2227.20;;;;;;5052871;28;20049;-63
2023/01/30 08:14:01;;;;;;;25.80;17.35;;;102.60;2227.20;;;;;;5052664;28;20060;-60
2023/01/30 08:16:27;;;;;;;26.75;17.65;;;102.70;2227.20;;;;;;5052506;28;20425;-62
2023/01/30 08:18:53;;;;;;;33.58;18.90;;;102.90;2227.20;;;;;;5052706;28;20190;-63
2023/01/30 08:21:18;;;;;;;27.95;17.25;;;103.00;2227.20;;;;;;5052779;28;20067;-63
2023/01/30 08:23:44;;;;;;;29.02;17.40;;;103.10;2227.20;;;;;;5052604;28;20032;-63
2023/01/30 08:26:10;;;;;;;30.70;18.83;;;103.10;2227.20;;;;;;5052700;28;20049;-63
2023/01/30 08:28:35;;;;;;;31.80;18.40;;;102.90;2227.20;;;;;;5052411;28;20029;-61
2023/01/30 08:31:01;;;;;;;37.15;23.27;;;103.00;2227.20;;;;;;5050538;28;20037;-63
2023/01/30 08:33:27;;;;;;;33.67;20.63;;;103.10;2227.20;;;;;;5050494;28;20040;-60
2023/01/30 08:35:54;;;;;;;34.72;19.45;;;102.80;2227.20;;;;;;5049927;28;20025;-61
2023/01/30 08:38:20;;;;;;;30.33;18.92;;;102.90;2227.20;;;;;;5050284;28;20029;-62
2023/01/30 08:40:46;;;;;;;36.22;24.25;;;103.10;2227.20;;;;;;5050155;28;20166;-64
2023/01/30 08:43:11;;;;;;;51.55;30.98;;;103.30;2227.20;;;;;;5049975;28;20043;-62
2023/01/30 08:45:37;;;;;;;50.58;31.80;;;128.00;2252.80;;;;;;5049667;28;20083;-61
2023/01/30 08:48:05;;;;;;;49.08;29.27;;;103.10;2227.20;;;;;;5049713;28;20178;-60
2023/01/30 08:50:31;;;;;;;50.80;30.35;;;103.30;2227.20;;;;;;5050061;28;20033;-62
2023/01/30 08:53:01;;;;;;;48.40;29.92;;;103.30;2227.20;;;;;;5050126;28;20040;-61
2023/01/30 08:55:27;;;;;;;43.20;29.70;;;103.30;2227.20;;;;;;5049976;28;20035;-61
2023/01/30 08:57:55;;;;;;;55.45;34.70;;;128.10;2252.80;;;;;;5049291;28;20041;-60
2023/01/30 09:00:21;;;;;;;49.03;31.60;;;128.10;2252.80;;;;;;5049532;28;20025;-60
2023/01/30 09:02:46;;;;;;;53.22;31.00;;;128.30;2252.80;;;;;;5049512;28;20029;-63
2023/01/30 09:05:12;;;;;;;50.90;32.85;;;128.50;2252.80;;;;;;5049659;28;20032;-59
2023/01/30 09:07:38;;;;;;;104.07;66.40;;;128.50;2252.80;;;;;;5049779;28;20108;-60
2023/01/30 09:10:04;;;;;;;62.78;42.17;;;128.80;2252.80;;;;;;5049369;28;20432;-63
2023/01/30 09:12:30;;;;;;;133.13;71.80;;;128.70;2252.80;;;;;;5049859;28;20112;-62
2023/01/30 09:14:57;;;;;;;86.63;52.83;;;128.90;2252.80;;;;;;5049281;28;20518;-61
2023/01/30 09:17:23;;;;;;;76.80;52.38;;;128.90;2252.80;;;;;;5049286;28;20036;-61
2023/01/30 09:19:49;;;;;;;118.25;70.22;;;153.70;2252.80;;;;;;5048579;28;20123;-61
2023/01/30 09:22:15;;;;;;;104.30;73.57;;;153.80;2252.80;;;;;;5049165;28;20045;-63
2023/01/30 09:24:41;;;;;;;50.70;34.30;;;153.80;2252.80;;;;;;5048976;28;20025;-63
2023/01/30 09:27:07;;;;;;;55.97;34.20;;;153.80;2252.80;;;;;;5049312;28;20178;-61
2023/01/30 09:29:33;;;;;;;121.10;66.65;;;153.80;2252.80;;;;;;5049097;28;20087;-60
2023/01/30 09:31:58;;;;;;;89.25;53.75;;;154.00;2252.80;;;;;;5049709;28;20036;-60
2023/01/30 09:34:27;;;;;;;68.47;43.63;;;153.80;2252.80;;;;;;5049126;28;20025;-60
2023/01/30 09:36:56;;;;;;;64.50;43.10;;;128.60;2252.80;;;;;;5048757;28;20073;-62
2023/01/30 09:39:22;;;;;;;63.80;44.10;;;128.90;2252.80;;;;;;5048925;28;20018;-61
2023/01/30 09:42:11;;;;;;;55.65;36.85;;;153.80;2252.80;;;;;;5049190;28;20044;-60
2023/01/30 09:44:59;;;;;;;82.28;55.40;;;153.80;2252.80;;;;;;5048943;28;20115;-61
2023/01/30 09:47:48;;;;;;;65.63;42.92;;;153.90;2252.80;;;;;;5048849;28;20055;-61
2023/01/30 09:50:41;;;;;;;67.00;43.15;;;154.10;2252.80;;;;;;5048534;28;20079;-60
2023/01/30 09:53:43;;;;;;;79.15;53.45;;;154.30;2252.80;;;;;;5048495;28;20036;-60
2023/01/30 09:56:09;;;;;;;64.25;40.63;;;154.20;2252.80;;;;;;5049032;28;20033;-60
2023/01/30 09:58:50;;;;;;;64.40;39.30;;;154.50;2252.80;;;;;;5048594;28;20072;-61
2023/01/30 10:01:47;;;;;;;65.60;38.15;;;153.80;2252.80;;;;;;5048482;28;20060;-61
2023/01/30 10:04:27;;;;;;;59.25;37.85;;;153.80;2252.80;;;;;;5003887;28;20608;-62
2023/01/30 10:07:21;;;;;;;66.35;42.65;;;154.20;2252.80;;;;;;5005642;28;20388;-59
2023/01/30 10:09:54;;;;;;;48.20;33.03;;;179.40;2252.80;;;;;;4985893;28;20034;-60
2023/01/30 10:12:50;;;;;;;75.15;56.97;;;179.80;2252.80;;;;;;4985872;28;20041;-62
2023/01/30 10:15:30;;;;;;;57.88;36.63;;;180.10;2252.80;;;;;;4984144;28;20480;-60
2023/01/30 10:18:28;;;;;;;72.50;45.55;;;204.90;2252.80;;;;;;4983791;28;20038;-63
2023/01/30 10:21:31;;;;;;;67.85;40.80;;;204.80;2252.80;;;;;;4983494;28;20034;-63
2023/01/30 10:24:00;;;;;;;68.05;34.20;;;179.70;2252.80;;;;;;4983984;28;20046;-62
2023/01/30 10:26:29;;;;;;;81.05;51.95;;;154.50;2252.80;;;;;;4984232;28;20618;-61
2023/01/30 10:29:09;;;;;;;83.07;49.05;;;179.20;2252.80;;;;;;4983927;28;20037;-63
2023/01/30 10:31:52;;;;;;;93.28;53.85;;;179.70;2252.80;;;;;;4982978;28;20359;-62
2023/01/30 10:34:24;;;;;;;46.75;29.70;;;179.50;2252.80;;;;;;4983874;28;20132;-61
2023/01/30 10:37:12;;;;;;;152.73;92.03;;;154.50;2252.80;;;;;;4984513;28;20101;-63
2023/01/30 10:39:50;;;;;;;81.15;48.67;;;179.50;2252.80;;;;;;4983813;28;20065;-61
2023/01/30 10:42:23;;;;;;;128.73;73.53;;;179.40;2252.80;;;;;;4994829;28;20041;-63
2023/01/30 10:44:49;;;;;;;136.60;88.32;;;179.50;2252.80;;;;;;4999626;28;20018;-63
2023/01/30 10:47:31;;;;;;;209.75;132.00;;;180.00;2252.80;;;;;;5032936;28;20490;-62
2023/01/30 10:50:13;;;;;;;77.47;48.10;;;179.60;2252.80;;;;;;5045584;28;20376;-61
2023/01/30 10:53:05;;;;;;;54.55;37.38;;;179.80;2252.80;;;;;;5045930;28;20025;-61
2023/01/30 10:55:43;;;;;;;45.22;27.48;;;204.80;2252.80;;;;;;5043961;28;20033;-61
2023/01/30 10:58:30;;;;;;;49.70;30.02;;;179.20;2252.80;;;;;;5046020;28;20076;-60
2023/01/30 11:01:31;;;;;;;39.00;25.10;;;179.80;2252.80;;;;;;5044966;28;20057;-61
2023/01/30 11:04:13;;;;;;;63.17;35.35;;;179.60;2252.80;;;;;;4964704;28;20077;-61
2023/01/30 11:06:39;;;;;;;51.80;33.97;;;179.20;2252.80;;;;;;4964737;28;20105;-63
2023/01/30 11:09:04;;;;;;;50.95;32.72;;;179.50;2252.80;;;;;;4964044;28;20114;-61
2023/01/30 11:11:46;;;;;;;41.80;25.65;;;179.60;2252.80;;;;;;4964866;28;20073;-62
2023/01/30 11:14:12;;;;;;;60.25;38.47;;;179.40;2252.80;;;;;;4963298;28;20405;-62
2023/01/30 11:16:49;;;;;;;54.60;34.20;;;;;;;;;;4964589;28;20031;-63
2023/01/30 11:19:17;;;;;;;49.00;29.92;;;;;;;;;;4964582;28;20508;-63
2023/01/30 11:21:49;;;;;;;44.15;26.40;;;;;;;;;;4964095;28;20046;-62
2023/01/30 11:24:16;;;;;;;42.55;26.33;;;;;;;;;;4964559;28;20093;-64
2023/01/30 11:26:43;;;;;;;41.55;26.27;;;;;;;;;;4964717;28;20027;-62
2023/01/30 11:29:27;;;;;;;45.17;24.67;;;;;;;;;;4964854;28;20489;-62
2023/01/30 11:31:53;;;;;;;49.58;29.13;;;;;;;;;;4963462;28;20054;-61
2023/01/30 11:34:21;;;;;;;44.58;28.00;;;;;;;;;;4964065;28;20154;-60
2023/01/30 11:36:48;;;;;;;51.38;29.60;;;;;;;;;;4964548;28;20042;-64
2023/01/30 11:39:16;;;;;;;51.22;33.95;;;;;;;;;;4964427;28;20393;-60
2023/01/30 11:42:08;;;;;;;48.92;30.25;;;;;;;;;;5036302;28;20036;-61
2023/01/30 11:44:36;;;;;;;62.83;38.30;;;;;;;;;;5045032;28;20037;-63
2023/01/30 11:47:04;;;;;;;72.45;47.85;;;;;;;;;;5048387;28;20049;-61
2023/01/30 11:49:33;;;;;;;48.53;29.83;;;;;;;;;;5049135;28;20013;-61
2023/01/30 11:52:00;;;;;;;53.50;30.15;;;;;;;;;;5049582;28;20041;-64
2023/01/30 11:54:29;;;;;;;64.40;35.83;;;;;;;;;;5048894;28;20025;-62
2023/01/30 11:56:56;;;;;;;54.05;34.33;;;;;;;;;;5048461;28;20080;-62
2023/01/30 11:59:30;;;;;;;55.13;33.65;;;;;;;;;;5049279;28;20017;-60
2023/01/30 12:01:56;;;;;;;;;;;;;;;;;;5050044;28;20064;-62
2023/01/30 12:04:22;;;;;;;49.38;29.08;;;;;;;;;;5050730;28;19994;-60
2023/01/30 12:07:03;;;;;;;41.00;26.45;;;;;;;;;;5050764;28;20033;-61
2023/01/30 12:09:34;;;;;;;45.45;31.48;;;;;;;;;;5050645;28;20090;-61
2023/01/30 12:12:00;;;;;;;44.67;25.33;;;;;;;;;;5050678;28;20481;-62
2023/01/30 12:14:37;;;;;;;50.80;27.98;;;;;;;;;;5049991;28;20025;-61
2023/01/30 12:17:06;;;;;;;51.67;32.03;;;;;;;;;;5050452;28;20391;-61
2023/01/30 12:19:39;;;;;;;65.75;41.05;;;;;;;;;;5050601;28;20383;-61
2023/01/30 12:22:05;;;;;;;;;;;;;;;;;;5050710;28;20545;-62
2023/01/30 12:25:01;;;;;;;47.05;29.35;;;;;;;;;;5050472;28;20034;-60
2023/01/30 12:27:31;;;;;;;48.33;30.83;;;;;;;;;;4988444;28;20034;-61
2023/01/30 12:30:03;;;;;;;56.03;31.73;;;;;;;;;;4988858;28;20109;-61
2023/01/30 12:32:31;;;;;;;59.88;37.95;;;;;;;;;;4988571;28;20039;-61
2023/01/30 12:34:57;;;;;;;51.72;30.73;;;;;;;;;;4988827;28;20054;-61
2023/01/30 12:37:23;;;;;;;51.00;28.65;;;;;;;;;;4988456;28;20574;-61
2023/01/30 12:39:55;;;;;;;65.57;40.00;;;;;;;;;;4988235;28;20038;-60
2023/01/30 12:42:21;;;;;;;61.97;39.17;;;;;;;;;;4988537;28;20030;-59